sensor_id;sensor_type;location;lat;lon;timestamp;P1;durP1;ratioP1;P2;durP2;ratioP2
7931;SDS011;4011;49.424;10.894;2023-03-04T00:03:19;6.95;;;5.82;;
7931;SDS011;4011;49.424;10.894;2023-03-04T00:08:42;8.30;;;7.50;;
7931;SDS011;4011;49.424;10.894;2023-03-04T00:14:04;8.30;;;5.57;;
7931;SDS011;4011;49.424;10.894;2023-03-04T00:19:26;7.93;;;6.28;;
7931;SDS011;4011;49.424;10.894;2023-03-04T00:24:49;8.05;;;6.00;;
7931;SDS011;4011;49.424;10.894;2023-03-04T00:30:17;7.88;;;7.00;;
7931;SDS011;4011;49.424;10.894;2023-03-04T00:35:40;7.38;;;5.65;;
7931;SDS011;4011;49.424;10.894;2023-03-04T00:41:04;7.07;;;5.97;;
7931;SDS011;4011;49.424;10.894;2023-03-04T00:46:25;7.47;;;6.18;;
7931;SDS011;4011;49.424;10.894;2023-03-04T00:51:47;8.27;;;6.95;;
7931;SDS011;4011;49.424;10.894;2023-03-04T00:57:17;8.07;;;5.85;;
7931;SDS011;4011;49.424;10.894;2023-03-04T01:02:38;7.75;;;6.70;;
7931;SDS011;4011;49.424;10.894;2023-03-04T01:08:13;7.50;;;6.68;;
7931;SDS011;4011;49.424;10.894;2023-03-04T01:13:36;7.53;;;6.30;;
7931;SDS011;4011;49.424;10.894;2023-03-04T01:19:10;8.40;;;6.55;;
7931;SDS011;4011;49.424;10.894;2023-03-04T01:24:33;8.95;;;7.45;;
7931;SDS011;4011;49.424;10.894;2023-03-04T01:29:57;7.82;;;6.95;;
7931;SDS011;4011;49.424;10.894;2023-03-04T01:35:18;8.07;;;6.55;;
7931;SDS011;4011;49.424;10.894;2023-03-04T01:40:40;7.60;;;6.53;;
7931;SDS011;4011;49.424;10.894;2023-03-04T01:46:03;8.57;;;6.82;;
7931;SDS011;4011;49.424;10.894;2023-03-04T01:51:29;8.70;;;7.80;;
7931;SDS011;4011;49.424;10.894;2023-03-04T02:03:10;7.95;;;5.68;;
7931;SDS011;4011;49.424;10.894;2023-03-04T02:09:02;7.85;;;6.32;;
7931;SDS011;4011;49.424;10.894;2023-03-04T02:14:32;6.97;;;5.60;;
7931;SDS011;4011;49.424;10.894;2023-03-04T02:20:09;7.90;;;7.10;;
7931;SDS011;4011;49.424;10.894;2023-03-04T02:25:35;6.80;;;5.43;;
7931;SDS011;4011;49.424;10.894;2023-03-04T02:31:01;7.68;;;5.82;;
7931;SDS011;4011;49.424;10.894;2023-03-04T02:36:22;7.20;;;6.47;;
7931;SDS011;4011;49.424;10.894;2023-03-04T02:41:44;7.70;;;6.80;;
7931;SDS011;4011;49.424;10.894;2023-03-04T02:47:08;6.10;;;5.40;;
7931;SDS011;4011;49.424;10.894;2023-03-04T02:52:30;7.55;;;5.57;;
7931;SDS011;4011;49.424;10.894;2023-03-04T02:57:52;7.28;;;5.68;;
7931;SDS011;4011;49.424;10.894;2023-03-04T03:03:15;8.73;;;7.93;;
7931;SDS011;4011;49.424;10.894;2023-03-04T03:08:37;7.53;;;6.07;;
7931;SDS011;4011;49.424;10.894;2023-03-04T03:13:59;7.32;;;5.65;;
7931;SDS011;4011;49.424;10.894;2023-03-04T03:19:23;6.35;;;4.97;;
7931;SDS011;4011;49.424;10.894;2023-03-04T03:24:52;8.32;;;6.70;;
7931;SDS011;4011;49.424;10.894;2023-03-04T03:30:17;6.75;;;6.00;;
7931;SDS011;4011;49.424;10.894;2023-03-04T03:35:42;7.43;;;6.22;;
7931;SDS011;4011;49.424;10.894;2023-03-04T03:41:04;6.80;;;6.10;;
7931;SDS011;4011;49.424;10.894;2023-03-04T03:46:25;7.65;;;6.95;;
7931;SDS011;4011;49.424;10.894;2023-03-04T03:51:53;6.95;;;5.25;;
7931;SDS011;4011;49.424;10.894;2023-03-04T03:57:16;6.95;;;5.57;;
7931;SDS011;4011;49.424;10.894;2023-03-04T04:02:38;6.65;;;5.68;;
7931;SDS011;4011;49.424;10.894;2023-03-04T04:08:02;8.80;;;7.22;;
7931;SDS011;4011;49.424;10.894;2023-03-04T04:13:24;6.93;;;5.45;;
7931;SDS011;4011;49.424;10.894;2023-03-04T04:18:57;7.30;;;5.57;;
7931;SDS011;4011;49.424;10.894;2023-03-04T04:24:25;7.70;;;7.00;;
7931;SDS011;4011;49.424;10.894;2023-03-04T04:29:46;6.90;;;5.28;;
7931;SDS011;4011;49.424;10.894;2023-03-04T04:35:11;6.68;;;5.45;;
7931;SDS011;4011;49.424;10.894;2023-03-04T04:40:36;6.72;;;5.65;;
7931;SDS011;4011;49.424;10.894;2023-03-04T04:45:58;7.85;;;7.15;;
7931;SDS011;4011;49.424;10.894;2023-03-04T04:51:35;6.50;;;5.53;;
7931;SDS011;4011;49.424;10.894;2023-03-04T04:57:02;7.10;;;5.20;;
7931;SDS011;4011;49.424;10.894;2023-03-04T05:02:32;7.38;;;6.07;;
7931;SDS011;4011;49.424;10.894;2023-03-04T05:07:56;7.05;;;5.63;;
7931;SDS011;4011;49.424;10.894;2023-03-04T05:13:25;7.28;;;5.50;;
7931;SDS011;4011;49.424;10.894;2023-03-04T05:19:02;6.68;;;5.28;;
7931;SDS011;4011;49.424;10.894;2023-03-04T05:24:39;6.93;;;5.20;;
7931;SDS011;4011;49.424;10.894;2023-03-04T05:35:54;8.88;;;5.13;;
7931;SDS011;4011;49.424;10.894;2023-03-04T05:41:27;8.85;;;6.40;;
7931;SDS011;4011;49.424;10.894;2023-03-04T05:46:51;7.72;;;5.43;;
7931;SDS011;4011;49.424;10.894;2023-03-04T05:52:15;7.55;;;5.18;;
7931;SDS011;4011;49.424;10.894;2023-03-04T05:57:44;7.90;;;7.10;;
7931;SDS011;4011;49.424;10.894;2023-03-04T06:03:11;6.30;;;4.72;;
7931;SDS011;4011;49.424;10.894;2023-03-04T06:08:36;6.90;;;5.25;;
7931;SDS011;4011;49.424;10.894;2023-03-04T06:14:01;6.75;;;5.05;;
7931;SDS011;4011;49.424;10.894;2023-03-04T06:19:26;6.90;;;6.10;;
7931;SDS011;4011;49.424;10.894;2023-03-04T06:24:49;7.25;;;4.82;;
7931;SDS011;4011;49.424;10.894;2023-03-04T06:30:11;6.20;;;4.63;;
7931;SDS011;4011;49.424;10.894;2023-03-04T06:35:32;5.80;;;5.15;;
7931;SDS011;4011;49.424;10.894;2023-03-04T06:40:55;6.60;;;5.95;;
7931;SDS011;4011;49.424;10.894;2023-03-04T06:46:17;6.32;;;4.65;;
7931;SDS011;4011;49.424;10.894;2023-03-04T06:51:38;6.45;;;4.78;;
7931;SDS011;4011;49.424;10.894;2023-03-04T06:57:02;6.03;;;4.65;;
7931;SDS011;4011;49.424;10.894;2023-03-04T07:02:24;8.02;;;6.20;;
7931;SDS011;4011;49.424;10.894;2023-03-04T07:07:48;5.68;;;4.50;;
7931;SDS011;4011;49.424;10.894;2023-03-04T07:18:58;6.22;;;5.63;;
7931;SDS011;4011;49.424;10.894;2023-03-04T07:24:23;5.35;;;4.15;;
7931;SDS011;4011;49.424;10.894;2023-03-04T07:29:44;4.75;;;3.83;;
7931;SDS011;4011;49.424;10.894;2023-03-04T07:35:11;5.43;;;4.45;;
7931;SDS011;4011;49.424;10.894;2023-03-04T07:40:35;6.80;;;5.25;;
7931;SDS011;4011;49.424;10.894;2023-03-04T07:45:57;5.63;;;3.97;;
7931;SDS011;4011;49.424;10.894;2023-03-04T07:51:22;5.50;;;3.75;;
7931;SDS011;4011;49.424;10.894;2023-03-04T07:56:45;5.43;;;4.70;;
7931;SDS011;4011;49.424;10.894;2023-03-04T08:02:08;5.95;;;4.75;;
7931;SDS011;4011;49.424;10.894;2023-03-04T08:07:43;5.47;;;3.47;;
7931;SDS011;4011;49.424;10.894;2023-03-04T08:13:08;6.10;;;4.90;;
7931;SDS011;4011;49.424;10.894;2023-03-04T08:18:33;6.40;;;5.03;;
7931;SDS011;4011;49.424;10.894;2023-03-04T08:23:57;6.03;;;4.40;;
7931;SDS011;4011;49.424;10.894;2023-03-04T08:29:27;6.57;;;4.35;;
7931;SDS011;4011;49.424;10.894;2023-03-04T08:34:49;8.05;;;6.40;;
7931;SDS011;4011;49.424;10.894;2023-03-04T08:40:17;5.40;;;4.05;;
7931;SDS011;4011;49.424;10.894;2023-03-04T08:45:42;5.70;;;4.28;;
7931;SDS011;4011;49.424;10.894;2023-03-04T08:51:06;6.20;;;4.43;;
7931;SDS011;4011;49.424;10.894;2023-03-04T08:56:33;6.22;;;5.63;;
7931;SDS011;4011;49.424;10.894;2023-03-04T09:07:16;6.28;;;4.70;;
7931;SDS011;4011;49.424;10.894;2023-03-04T09:12:39;6.75;;;4.68;;
7931;SDS011;4011;49.424;10.894;2023-03-04T09:18:01;6.13;;;5.45;;
7931;SDS011;4011;49.424;10.894;2023-03-04T09:23:23;6.47;;;4.82;;
7931;SDS011;4011;49.424;10.894;2023-03-04T09:28:55;5.85;;;4.50;;
7931;SDS011;4011;49.424;10.894;2023-03-04T09:34:20;6.57;;;5.45;;
7931;SDS011;4011;49.424;10.894;2023-03-04T09:39:53;6.15;;;4.35;;
7931;SDS011;4011;49.424;10.894;2023-03-04T09:45:31;6.07;;;4.07;;
7931;SDS011;4011;49.424;10.894;2023-03-04T09:51:10;5.93;;;4.20;;
7931;SDS011;4011;49.424;10.894;2023-03-04T09:56:40;5.20;;;3.97;;
7931;SDS011;4011;49.424;10.894;2023-03-04T10:02:11;6.72;;;5.18;;
7931;SDS011;4011;49.424;10.894;2023-03-04T10:07:36;5.47;;;4.03;;
7931;SDS011;4011;49.424;10.894;2023-03-04T10:13:14;6.07;;;3.83;;
7931;SDS011;4011;49.424;10.894;2023-03-04T10:18:40;5.55;;;5.05;;
7931;SDS011;4011;49.424;10.894;2023-03-04T10:24:06;5.35;;;3.72;;
7931;SDS011;4011;49.424;10.894;2023-03-04T10:29:32;4.85;;;4.05;;
7931;SDS011;4011;49.424;10.894;2023-03-04T10:35:02;6.30;;;4.82;;
7931;SDS011;4011;49.424;10.894;2023-03-04T10:40:39;4.85;;;3.45;;
7931;SDS011;4011;49.424;10.894;2023-03-04T10:46:04;5.32;;;3.17;;
7931;SDS011;4011;49.424;10.894;2023-03-04T10:57:40;5.75;;;4.68;;
7931;SDS011;4011;49.424;10.894;2023-03-04T11:03:24;5.13;;;3.53;;
7931;SDS011;4011;49.424;10.894;2023-03-04T11:08:53;6.05;;;4.78;;
7931;SDS011;4011;49.424;10.894;2023-03-04T11:14:18;3.97;;;3.13;;
7931;SDS011;4011;49.424;10.894;2023-03-04T11:19:47;4.97;;;2.88;;
7931;SDS011;4011;49.424;10.894;2023-03-04T11:25:20;4.32;;;3.90;;
7931;SDS011;4011;49.424;10.894;2023-03-04T11:30:49;4.88;;;3.20;;
7931;SDS011;4011;49.424;10.894;2023-03-04T11:36:25;4.45;;;3.10;;
7931;SDS011;4011;49.424;10.894;2023-03-04T11:42:01;4.13;;;3.22;;
7931;SDS011;4011;49.424;10.894;2023-03-04T11:47:29;6.15;;;3.40;;
7931;SDS011;4011;49.424;10.894;2023-03-04T12:04:05;4.68;;;3.38;;
7931;SDS011;4011;49.424;10.894;2023-03-04T12:09:38;5.18;;;4.68;;
7931;SDS011;4011;49.424;10.894;2023-03-04T12:15:05;4.80;;;3.53;;
7931;SDS011;4011;49.424;10.894;2023-03-04T12:20:45;4.75;;;3.47;;
7931;SDS011;4011;49.424;10.894;2023-03-04T12:26:16;4.55;;;3.33;;
7931;SDS011;4011;49.424;10.894;2023-03-04T12:32:06;5.32;;;4.90;;
7931;SDS011;4011;49.424;10.894;2023-03-04T12:43:34;5.85;;;4.93;;
7931;SDS011;4011;49.424;10.894;2023-03-04T12:49:18;5.40;;;3.53;;
7931;SDS011;4011;49.424;10.894;2023-03-04T12:54:49;5.43;;;3.58;;
7931;SDS011;4011;49.424;10.894;2023-03-04T13:00:22;4.07;;;3.20;;
7931;SDS011;4011;49.424;10.894;2023-03-04T13:05:57;6.55;;;4.70;;
7931;SDS011;4011;49.424;10.894;2023-03-04T13:11:38;5.10;;;3.30;;
7931;SDS011;4011;49.424;10.894;2023-03-04T13:17:17;4.50;;;3.55;;
7931;SDS011;4011;49.424;10.894;2023-03-04T13:22:52;5.00;;;3.58;;
7931;SDS011;4011;49.424;10.894;2023-03-04T13:28:21;5.35;;;4.07;;
7931;SDS011;4011;49.424;10.894;2023-03-04T13:34:39;5.28;;;4.43;;
7931;SDS011;4011;49.424;10.894;2023-03-04T13:40:03;5.55;;;4.88;;
7931;SDS011;4011;49.424;10.894;2023-03-04T13:45:56;4.63;;;3.75;;
7931;SDS011;4011;49.424;10.894;2023-03-04T13:51:22;4.63;;;3.90;;
7931;SDS011;4011;49.424;10.894;2023-03-04T14:02:28;6.63;;;5.03;;
7931;SDS011;4011;49.424;10.894;2023-03-04T14:08:03;5.10;;;3.20;;
7931;SDS011;4011;49.424;10.894;2023-03-04T14:13:37;5.20;;;4.70;;
7931;SDS011;4011;49.424;10.894;2023-03-04T14:19:01;5.43;;;3.85;;
7931;SDS011;4011;49.424;10.894;2023-03-04T14:24:28;5.15;;;3.45;;
7931;SDS011;4011;49.424;10.894;2023-03-04T14:29:53;5.80;;;3.50;;
7931;SDS011;4011;49.424;10.894;2023-03-04T14:35:18;5.80;;;5.20;;
7931;SDS011;4011;49.424;10.894;2023-03-04T14:40:43;5.75;;;3.65;;
7931;SDS011;4011;49.424;10.894;2023-03-04T14:46:09;5.13;;;3.35;;
7931;SDS011;4011;49.424;10.894;2023-03-04T14:57:22;4.95;;;3.78;;
7931;SDS011;4011;49.424;10.894;2023-03-04T15:02:48;6.70;;;3.53;;
7931;SDS011;4011;49.424;10.894;2023-03-04T15:08:19;6.47;;;3.90;;
7931;SDS011;4011;49.424;10.894;2023-03-04T15:13:44;5.82;;;3.45;;
7931;SDS011;4011;49.424;10.894;2023-03-04T15:24:43;5.82;;;3.75;;
7931;SDS011;4011;49.424;10.894;2023-03-04T15:59:38;5.47;;;3.92;;
7931;SDS011;4011;49.424;10.894;2023-03-04T16:04:59;5.25;;;2.80;;
7931;SDS011;4011;49.424;10.894;2023-03-04T16:10:22;5.78;;;3.13;;
7931;SDS011;4011;49.424;10.894;2023-03-04T16:15:49;4.47;;;3.65;;
7931;SDS011;4011;49.424;10.894;2023-03-04T16:21:16;5.28;;;2.83;;
7931;SDS011;4011;49.424;10.894;2023-03-04T16:26:45;5.57;;;3.50;;
7931;SDS011;4011;49.424;10.894;2023-03-04T16:32:22;5.20;;;3.75;;
7931;SDS011;4011;49.424;10.894;2023-03-04T16:38:17;6.28;;;3.97;;
7931;SDS011;4011;49.424;10.894;2023-03-04T16:43:37;6.82;;;5.32;;
7931;SDS011;4011;49.424;10.894;2023-03-04T20:18:47;4.93;;;3.20;;
7931;SDS011;4011;49.424;10.894;2023-03-04T20:24:23;6.05;;;4.00;;
7931;SDS011;4011;49.424;10.894;2023-03-04T20:29:59;5.32;;;3.20;;
7931;SDS011;4011;49.424;10.894;2023-03-04T20:59:00;5.63;;;3.22;;
7931;SDS011;4011;49.424;10.894;2023-03-04T21:04:22;6.07;;;4.65;;
7931;SDS011;4011;49.424;10.894;2023-03-04T21:09:44;7.28;;;5.00;;
7931;SDS011;4011;49.424;10.894;2023-03-04T21:15:08;6.50;;;4.25;;
7931;SDS011;4011;49.424;10.894;2023-03-04T21:20:30;7.65;;;4.22;;
7931;SDS011;4011;49.424;10.894;2023-03-04T21:25:51;7.20;;;4.50;;
7931;SDS011;4011;49.424;10.894;2023-03-04T21:37:01;5.38;;;4.13;;
7931;SDS011;4011;49.424;10.894;2023-03-04T21:42:23;7.72;;;5.57;;
7931;SDS011;4011;49.424;10.894;2023-03-04T21:47:44;7.10;;;4.15;;
7931;SDS011;4011;49.424;10.894;2023-03-04T21:53:10;6.25;;;3.80;;
7931;SDS011;4011;49.424;10.894;2023-03-04T21:58:32;5.28;;;3.88;;
7931;SDS011;4011;49.424;10.894;2023-03-04T22:03:56;6.50;;;5.85;;
7931;SDS011;4011;49.424;10.894;2023-03-04T22:09:19;6.47;;;4.75;;
7931;SDS011;4011;49.424;10.894;2023-03-04T22:14:40;6.40;;;3.60;;
7931;SDS011;4011;49.424;10.894;2023-03-04T22:20:02;6.22;;;3.85;;
7931;SDS011;4011;49.424;10.894;2023-03-04T22:25:25;7.38;;;5.00;;
7931;SDS011;4011;49.424;10.894;2023-03-04T22:30:47;7.25;;;5.18;;
7931;SDS011;4011;49.424;10.894;2023-03-04T22:36:09;6.10;;;4.07;;
7931;SDS011;4011;49.424;10.894;2023-03-04T22:41:33;5.80;;;4.13;;
7931;SDS011;4011;49.424;10.894;2023-03-04T22:46:54;8.00;;;4.65;;
7931;SDS011;4011;49.424;10.894;2023-03-04T22:52:16;6.55;;;5.40;;
7931;SDS011;4011;49.424;10.894;2023-03-04T22:57:40;6.28;;;4.10;;
7931;SDS011;4011;49.424;10.894;2023-03-04T23:03:01;6.75;;;4.13;;
7931;SDS011;4011;49.424;10.894;2023-03-04T23:08:25;7.20;;;4.28;;
7931;SDS011;4011;49.424;10.894;2023-03-04T23:13:55;7.25;;;6.03;;
7931;SDS011;4011;49.424;10.894;2023-03-04T23:19:16;6.25;;;4.35;;
7931;SDS011;4011;49.424;10.894;2023-03-04T23:24:47;6.88;;;4.07;;
7931;SDS011;4011;49.424;10.894;2023-03-04T23:30:13;8.13;;;5.95;;
7931;SDS011;4011;49.424;10.894;2023-03-04T23:35:38;6.25;;;4.35;;
7931;SDS011;4011;49.424;10.894;2023-03-04T23:40:59;7.03;;;4.22;;
7931;SDS011;4011;49.424;10.894;2023-03-04T23:46:26;6.95;;;4.15;;
7931;SDS011;4011;49.424;10.894;2023-03-04T23:51:49;6.72;;;6.03;;
7931;SDS011;4011;49.424;10.894;2023-03-04T23:57:11;6.03;;;4.00;;
